Estación Meteorológica Peña el Pijo (Robertgarden) [ 12/17/17 01:31:15 CET ]

Fecha Hora Presion(HPa) Temp (°C) Humedad % Rocio (°C) Viento ( m/s) Direccion Lluvia 1Hora(mm) Lluvia 24H(mm) LLuvia Total(mm)
2017-Oct-29 01:01:33 1014.800 7.1 82 4.2         1466.45
2017-Oct-29 02:01:39 1014.400 7.1 83 4.4         1466.45
2017-Oct-29 03:07:02 1013.500 6.1 84 3.6         1466.45
2017-Oct-29 04:03:08 1013.300 5.0 85 2.6         1466.45
2017-Oct-29 05:01:52 1013.400 4.1 85 1.8         1466.45
2017-Oct-29 06:01:37 1013.400 3.5 86 1.4         1466.45
2017-Oct-29 07:01:28 1013.300 3.6 86 1.5         1466.45
2017-Oct-29 08:01:35 1013.500 3.4 87 1.4         1466.45
2017-Oct-29 09:01:42 1013.600 7.6 89 5.9         1466.45
2017-Oct-29 10:01:37 1013.200 14.9 80 11.5         1466.45
2017-Oct-29 11:01:10 1012.800 21.2 53 11.2         1466.45
2017-Oct-29 12:01:51 1012.500 22.9 41 8.9         1466.45
2017-Oct-29 13:01:41 1011.700 23.1 35 6.7         1466.45
2017-Oct-29 14:01:41 1010.900 24.8 32 7.0         1466.45
2017-Oct-29 15:01:38 1010.400 24.3 32 6.5         1466.45
2017-Oct-29 16:01:40 1010.200 23.5 34 6.6 1.8 S     1466.45
2017-Oct-29 17:01:46 1010.000 21.9 39 7.3         1466.45
2017-Oct-29 18:01:47 1010.200 17.8 50 7.2 1.0 S     1466.45
2017-Oct-29 19:01:51 1010.700 14.5 57 6.1         1466.45
2017-Oct-29 20:01:44 1010.900 11.6 67 5.7         1466.45
2017-Oct-29 21:01:48 1011.000 9.5 72 4.7         1466.45
2017-Oct-29 22:01:52 1011.000 8.3 76 4.3         1466.45
2017-Oct-29 23:01:54 1010.800 7.2 79 3.8         1466.45

Temperatura Máxima:24°    Temperatura Mínima:
Presión Máxima:1014.800 Hpa    Presión Mínima:1010.000 Hpa


Volver